MV Moseldijk — PBWK — position and weather

sailwx.info

Track history (hours):
 
Tides and Currents Weather Stations Pressure Air Temp Water Temp Dewpoint Dewpoint Depression Visibility Wind Speed Wind Dir Waves Ship Positions

MV Moseldijk

Last reported at 2017-Feb-24 22:30 UTC. Time now 2017-Feb-25 13:48 UTC.
Position N 39°09' W 009°50'.

Length 90 m; draft 5.4 m.

Type: Cargo ship. MMSI: 246644000.

Date/timePositionNaut miles runAvg speedWind from/ knotsBaromVisibWave heightAir tempDewpointWater temp
2017-Feb-24 22:30N 39°09' W 009°50'9 9.9
2017-Feb-24 21:33N 38°59' W 009°50'10 9.8
2017-Feb-24 20:33N 38°49' W 009°50'10 9.5
2017-Feb-24 19:33N 38°40' W 009°50'10 9.8
2017-Feb-24 18:33N 38°30' W 009°47'10 9.4
2017-Feb-24 17:33N 38°21' W 009°44'70 9.8
2017-Feb-24 10:22N 37°13' W 009°25'19710.5
2017-Feb-23 15:33N 35°58' W 005°38'1010.0
2017-Feb-23 14:33N 36°01' W 005°26'9 8.6
2017-Feb-23 13:33N 36°09' W 005°22'0 0.2
2017-Feb-23 12:33N 36°09' W 005°22'0 0.0
2017-Feb-23 11:33N 36°09' W 005°22'0 0.0
2017-Feb-23 10:33N 36°09' W 005°22'0 0.0
2017-Feb-23 09:33N 36°09' W 005°22'1 0.6
2017-Feb-23 08:33N 36°08' W 005°22'6 5.9
2017-Feb-23 07:33N 36°06' W 005°16'0 0.2
2017-Feb-23 06:33N 36°06' W 005°16'5 5.3
2017-Feb-23 05:33N 36°09' W 005°10'  
2017-Feb-19 14:13N 38°19' E 013°09'811.0
2017-Feb-19 13:27N 38°20' E 013°20'1411.3
2017-Feb-19 12:13N 38°19' E 013°38'5410.9
2017-Feb-19 07:15N 38°17' E 014°47'811.6
2017-Feb-19 06:32N 38°17' E 014°57'1111.0
2017-Feb-19 05:33N 38°19' E 015°11'1110.8
2017-Feb-19 04:33N 38°19' E 015°25'1111.0
2017-Feb-19 03:33N 38°18' E 015°38'5 5.4
2017-Feb-19 02:33N 38°13' E 015°37'10 9.9
2017-Feb-19 01:34N 38°03' E 015°36'1010.2
2017-Feb-19 00:33N 37°54' E 015°42'390 8.1
2017-Feb-17 00:04N 44°09' E 013°19'711.1
2017-Feb-16 23:27N 44°14' E 013°12'1011.3
2017-Feb-16 22:33N 44°23' E 013°07'1111.2
2017-Feb-16 21:33N 44°34' E 013°02'1111.2
2017-Feb-16 20:33N 44°44' E 012°57'1111.2
2017-Feb-16 19:33N 44°56' E 012°58'1111.1
2017-Feb-16 18:33N 45°06' E 013°02'1111.1
2017-Feb-16 17:33N 45°17' E 012°59'1110.9
2017-Feb-16 16:33N 45°27' E 013°07'1111.2
2017-Feb-16 15:33N 45°36' E 013°16'8 8.5
2017-Feb-16 14:33N 45°44' E 013°15'4 3.7
2017-Feb-16 13:31N 45°48' E 013°14'0 0.0
2017-Feb-16 12:31N 45°48' E 013°14'0 0.0
2017-Feb-16 11:28N 45°48' E 013°14'0 0.0
2017-Feb-16 10:25N 45°48' E 013°14'0 0.0
2017-Feb-16 09:31N 45°48' E 013°14'0 0.0
2017-Feb-16 08:31N 45°48' E 013°14'0 0.0
2017-Feb-16 07:22N 45°48' E 013°14'0 0.0
2017-Feb-16 06:31N 45°48' E 013°14'0 0.0
2017-Feb-16 05:28N 45°48' E 013°14'0 0.0
2017-Feb-16 04:22N 45°48' E 013°14'0 0.0
2017-Feb-16 03:31N 45°48' E 013°14'0 0.0
2017-Feb-16 02:31N 45°48' E 013°14'0 0.0
2017-Feb-16 01:31N 45°48' E 013°14'0 0.0
2017-Feb-16 00:31N 45°48' E 013°14'0 0.0
2017-Feb-15 23:31N 45°48' E 013°14'0 0.0
2017-Feb-15 22:31N 45°48' E 013°14'0 0.0
2017-Feb-15 21:31N 45°48' E 013°14'0 0.0
2017-Feb-15 20:28N 45°48' E 013°14'0 0.0
2017-Feb-15 19:31N 45°48' E 013°14'0 0.0
2017-Feb-15 18:28N 45°48' E 013°14'0 0.0
2017-Feb-15 17:31N 45°48' E 013°14'0 0.0
2017-Feb-15 16:31N 45°48' E 013°14'0 0.0
2017-Feb-15 15:31N 45°48' E 013°14'0 0.0
2017-Feb-15 14:28N 45°48' E 013°14'0 0.0
2017-Feb-15 13:28N 45°48' E 013°14'0 0.0
2017-Feb-15 12:28N 45°48' E 013°14'0 0.0
2017-Feb-15 11:31N 45°48' E 013°14'0 0.0
2017-Feb-15 10:31N 45°48' E 013°14'0 0.0
2017-Feb-15 09:28N 45°48' E 013°14'0 0.0
2017-Feb-15 08:31N 45°48' E 013°14'0 0.0
2017-Feb-15 07:31N 45°48' E 013°14'0 0.0
2017-Feb-15 06:31N 45°48' E 013°14'0 0.0
2017-Feb-15 05:31N 45°48' E 013°14'0 0.0
2017-Feb-15 04:31N 45°48' E 013°14'0 0.0
2017-Feb-15 03:31N 45°48' E 013°14'0 0.0
2017-Feb-15 02:28N 45°48' E 013°14'0 0.0
2017-Feb-15 01:25N 45°48' E 013°14'0 0.0
2017-Feb-15 00:19N 45°48' E 013°14'0 0.0
2017-Feb-14 23:28N 45°48' E 013°14'0 0.0
2017-Feb-14 22:31N 45°48' E 013°14'  
Track history (hours):
 
Tides and Currents Weather Stations Pressure Air Temp Water Temp Dewpoint Dewpoint Depression Visibility Wind Speed Wind Dir Waves Ship Positions

MV Moseldijk

Last reported at 2017-Feb-24 22:30 UTC. Time now 2017-Feb-25 13:48 UTC.
Position N 39°09' W 009°50'.

Length 90 m; draft 5.4 m.

Type: Cargo ship. MMSI: 246644000.

Date/timePositionNaut miles runAvg speedWind from/ knotsBaromVisibWave heightAir tempDewpointWater temp
2017-Feb-24 22:30N 39°09' W 009°50'9 9.9
2017-Feb-24 21:33N 38°59' W 009°50'10 9.8
2017-Feb-24 20:33N 38°49' W 009°50'10 9.5
2017-Feb-24 19:33N 38°40' W 009°50'10 9.8
2017-Feb-24 18:33N 38°30' W 009°47'10 9.4
2017-Feb-24 17:33N 38°21' W 009°44'70 9.8
2017-Feb-24 10:22N 37°13' W 009°25'19710.5
2017-Feb-23 15:33N 35°58' W 005°38'1010.0
2017-Feb-23 14:33N 36°01' W 005°26'9 8.6
2017-Feb-23 13:33N 36°09' W 005°22'0 0.2
2017-Feb-23 12:33N 36°09' W 005°22'0 0.0
2017-Feb-23 11:33N 36°09' W 005°22'0 0.0
2017-Feb-23 10:33N 36°09' W 005°22'0 0.0
2017-Feb-23 09:33N 36°09' W 005°22'1 0.6
2017-Feb-23 08:33N 36°08' W 005°22'6 5.9
2017-Feb-23 07:33N 36°06' W 005°16'0 0.2
2017-Feb-23 06:33N 36°06' W 005°16'5 5.3
2017-Feb-23 05:33N 36°09' W 005°10'  
2017-Feb-19 14:13N 38°19' E 013°09'811.0
2017-Feb-19 13:27N 38°20' E 013°20'1411.3
2017-Feb-19 12:13N 38°19' E 013°38'5410.9
2017-Feb-19 07:15N 38°17' E 014°47'811.6
2017-Feb-19 06:32N 38°17' E 014°57'1111.0
2017-Feb-19 05:33N 38°19' E 015°11'1110.8
2017-Feb-19 04:33N 38°19' E 015°25'1111.0
2017-Feb-19 03:33N 38°18' E 015°38'5 5.4
2017-Feb-19 02:33N 38°13' E 015°37'10 9.9
2017-Feb-19 01:34N 38°03' E 015°36'1010.2
2017-Feb-19 00:33N 37°54' E 015°42'390 8.1
2017-Feb-17 00:04N 44°09' E 013°19'711.1
2017-Feb-16 23:27N 44°14' E 013°12'1011.3
2017-Feb-16 22:33N 44°23' E 013°07'1111.2
2017-Feb-16 21:33N 44°34' E 013°02'1111.2
2017-Feb-16 20:33N 44°44' E 012°57'1111.2
2017-Feb-16 19:33N 44°56' E 012°58'1111.1
2017-Feb-16 18:33N 45°06' E 013°02'1111.1
2017-Feb-16 17:33N 45°17' E 012°59'1110.9
2017-Feb-16 16:33N 45°27' E 013°07'1111.2
2017-Feb-16 15:33N 45°36' E 013°16'8 8.5
2017-Feb-16 14:33N 45°44' E 013°15'4 3.7
2017-Feb-16 13:31N 45°48' E 013°14'0 0.0
2017-Feb-16 12:31N 45°48' E 013°14'0 0.0
2017-Feb-16 11:28N 45°48' E 013°14'0 0.0
2017-Feb-16 10:25N 45°48' E 013°14'0 0.0
2017-Feb-16 09:31N 45°48' E 013°14'0 0.0
2017-Feb-16 08:31N 45°48' E 013°14'0 0.0
2017-Feb-16 07:22N 45°48' E 013°14'0 0.0
2017-Feb-16 06:31N 45°48' E 013°14'0 0.0
2017-Feb-16 05:28N 45°48' E 013°14'0 0.0
2017-Feb-16 04:22N 45°48' E 013°14'0 0.0
2017-Feb-16 03:31N 45°48' E 013°14'0 0.0
2017-Feb-16 02:31N 45°48' E 013°14'0 0.0
2017-Feb-16 01:31N 45°48' E 013°14'0 0.0
2017-Feb-16 00:31N 45°48' E 013°14'0 0.0
2017-Feb-15 23:31N 45°48' E 013°14'0 0.0
2017-Feb-15 22:31N 45°48' E 013°14'0 0.0
2017-Feb-15 21:31N 45°48' E 013°14'0 0.0
2017-Feb-15 20:28N 45°48' E 013°14'0 0.0
2017-Feb-15 19:31N 45°48' E 013°14'0 0.0
2017-Feb-15 18:28N 45°48' E 013°14'0 0.0
2017-Feb-15 17:31N 45°48' E 013°14'0 0.0
2017-Feb-15 16:31N 45°48' E 013°14'0 0.0
2017-Feb-15 15:31N 45°48' E 013°14'0 0.0
2017-Feb-15 14:28N 45°48' E 013°14'0 0.0
2017-Feb-15 13:28N 45°48' E 013°14'0 0.0
2017-Feb-15 12:28N 45°48' E 013°14'0 0.0
2017-Feb-15 11:31N 45°48' E 013°14'0 0.0
2017-Feb-15 10:31N 45°48' E 013°14'0 0.0
2017-Feb-15 09:28N 45°48' E 013°14'0 0.0
2017-Feb-15 08:31N 45°48' E 013°14'0 0.0
2017-Feb-15 07:31N 45°48' E 013°14'0 0.0
2017-Feb-15 06:31N 45°48' E 013°14'0 0.0
2017-Feb-15 05:31N 45°48' E 013°14'0 0.0
2017-Feb-15 04:31N 45°48' E 013°14'0 0.0
2017-Feb-15 03:31N 45°48' E 013°14'0 0.0
2017-Feb-15 02:28N 45°48' E 013°14'0 0.0
2017-Feb-15 01:25N 45°48' E 013°14'0 0.0
2017-Feb-15 00:19N 45°48' E 013°14'0 0.0
2017-Feb-14 23:28N 45°48' E 013°14'0 0.0
2017-Feb-14 22:31N 45°48' E 013°14'  

Dump ship's entire track history